sim
Sign-in with your pilot id or email,
or register
Callsign
Passwort

Schedule Details

Flight Number: DLH434
Departure: Munich Airport (EDDM) at 14:50
Arrival: Chicago O'Hare International Airport (KORD) at 00:55
Route: Lufthansa Passenger Schedule. Enter filed route here before submitting Pirep.

Weather Information
Getting current METAR information for EDDM 010720Z VRB02KT 1600 0900SW R08L/0450D R08R/0275N BCFG SCT001 07/07 Q1008 BECMG 5000
Getting current METAR information for KORD 010651Z 26009KT 10SM FEW055 11/05 A2988 RMK AO2 SLP120 T01060050

Schedule Frequency

Route Map